Time;durP1;ratioP1;P1;durP2;ratioP2;P2;SDS_P1;SDS_P2;PMS_P1;PMS_P2;Temp;Humidity;BMP_temperature;BMP_pressure;BME280_temperature;BME280_humidity;BME280_pressure;Samples;Min_cycle;Max_cycle;Signal;HPM_P1;HPM_P2
2022/07/12 00:00:40;;;;;;;4.30;2.58;;;;;;;;;;5034949;28;20046;-62
2022/07/12 00:03:08;;;;;;;6.60;2.50;;;;;;;;;;5034529;28;20053;-62
2022/07/12 00:05:35;;;;;;;7.85;2.65;;;;;;;;;;5033506;28;20053;-62
2022/07/12 00:08:03;;;;;;;4.05;2.60;;;;;;;;;;5034595;28;20553;-62
2022/07/12 00:10:31;;;;;;;4.90;2.65;;;;;;;;;;5034628;28;20095;-62
2022/07/12 00:12:58;;;;;;;3.90;2.25;;;;;;;;;;5034701;28;20033;-62
2022/07/12 00:15:26;;;;;;;4.30;2.20;;;;;;;;;;5034492;28;20073;-63
2022/07/12 00:17:53;;;;;;;7.82;2.95;;;;;;;;;;5033829;28;20084;-62
2022/07/12 00:20:21;;;;;;;4.85;2.97;;;;;;;;;;5034366;28;20087;-62
2022/07/12 00:22:48;;;;;;;3.88;2.40;;;;;;;;;;5034557;28;20045;-63
2022/07/12 00:25:17;;;;;;;5.78;2.38;;;;;;;;;;5034329;28;20034;-62
2022/07/12 00:27:44;;;;;;;4.43;2.75;;;;;;;;;;5034285;28;20041;-63
2022/07/12 00:30:11;;;;;;;7.70;2.58;;;;;;;;;;5033123;28;20427;-62
2022/07/12 00:32:39;;;;;;;3.20;2.47;;;;;;;;;;5034147;28;20050;-63
2022/07/12 00:35:07;;;;;;;4.43;2.50;;;;;;;;;;5034261;28;20046;-63
2022/07/12 00:37:34;;;;;;;5.43;2.78;;;;;;;;;;5034194;28;20541;-63
2022/07/12 00:40:04;;;;;;;6.30;2.45;;;;;;;;;;5034082;28;20048;-63
2022/07/12 00:42:32;;;;;;;3.15;2.28;;;;;;;;;;5034014;28;20076;-63
2022/07/12 00:45:00;;;;;;;5.75;2.65;;;;;;;;;;5033872;28;20053;-63
2022/07/12 00:47:30;;;;;;;6.95;2.05;;;;;;;;;;5034139;28;20037;-63
2022/07/12 00:49:58;;;;;;;6.80;2.50;;;;;;;;;;5033908;28;20426;-63
2022/07/12 00:52:25;;;;;;;2.90;2.10;;;;;;;;;;5032988;28;20041;-63
2022/07/12 00:54:53;;;;;;;5.78;2.40;;;;;;;;;;5033921;28;20462;-63
2022/07/12 00:57:21;;;;;;;5.30;2.20;;;;;;;;;;5034154;28;20360;-63
2022/07/12 00:59:48;;;;;;;6.03;1.98;;;;;;;;;;5033672;28;20518;-63
2022/07/12 01:02:16;;;;;;;4.18;2.10;;;;;;;;;;5032501;28;20060;-63
2022/07/12 01:04:45;;;;;;;4.70;2.30;;;;;;;;;;5033669;28;20042;-64
2022/07/12 01:07:13;;;;;;;6.35;2.42;;;;;;;;;;5033825;28;20041;-63
2022/07/12 01:09:40;;;;;;;4.63;2.20;;;;;;;;;;5033616;28;20522;-64
2022/07/12 01:12:10;;;;;;;2.78;2.00;;;;;;;;;;5033867;28;20124;-64
2022/07/12 01:14:39;;;;;;;4.95;2.30;;;;;;;;;;5033402;28;20034;-64
2022/07/12 01:17:08;;;;;;;6.70;2.10;;;;;;;;;;5033378;28;20667;-64
2022/07/12 01:19:37;;;;;;;5.20;2.28;;;;;;;;;;5033462;28;20044;-63
2022/07/12 01:22:06;;;;;;;6.13;2.13;;;;;;;;;;5033245;28;20132;-64
2022/07/12 01:24:34;;;;;;;3.55;2.13;;;;;;;;;;5033145;28;20045;-64
2022/07/12 01:27:04;;;;;;;6.18;2.47;;;;;;;;;;5033546;28;20368;-64
2022/07/12 01:29:32;;;;;;;5.88;2.30;;;;;;;;;;5033149;28;20046;-64
2022/07/12 01:34:50;;;;;;;5.18;2.20;;;;;;;;;;5033027;28;20091;-64
2022/07/12 01:37:18;;;;;;;5.80;2.70;;;;;;;;;;5033024;28;20499;-64
2022/07/12 01:39:46;;;;;;;4.53;2.65;;;;;;;;;;5031882;28;20059;-64
2022/07/12 01:42:14;;;;;;;5.20;2.30;;;;;;;;;;5032927;28;20112;-64
2022/07/12 01:44:41;;;;;;;5.60;2.45;;;;;;;;;;5032978;28;20050;-64
2022/07/12 01:47:10;;;;;;;4.55;2.63;;;;;;;;;;5032806;28;20045;-64
2022/07/12 01:49:37;;;;;;;3.60;2.35;;;;;;;;;;5033006;28;20403;-64
2022/07/12 01:52:05;;;;;;;4.07;2.50;;;;;;;;;;5032733;28;20046;-64
2022/07/12 01:54:33;;;;;;;3.88;2.33;;;;;;;;;;5032690;28;20380;-64
2022/07/12 01:57:01;;;;;;;4.22;2.20;;;;;;;;;;5032499;28;20579;-65
2022/07/12 01:59:29;;;;;;;4.45;2.25;;;;;;;;;;5032553;28;20038;-64
2022/07/12 02:01:57;;;;;;;5.28;2.50;;;;;;;;;;5032514;28;20124;-65
2022/07/12 02:04:25;;;;;;;6.40;2.10;;;;;;;;;;5032732;28;20037;-64
2022/07/12 02:06:52;;;;;;;5.20;2.28;;;;;;;;;;5032369;28;20092;-64
2022/07/12 02:09:20;;;;;;;4.28;2.25;;;;;;;;;;5031096;28;20068;-65
2022/07/12 02:11:47;;;;;;;3.97;2.30;;;;;;;;;;5032563;28;20096;-65
2022/07/12 02:14:15;;;;;;;5.18;2.15;;;;;;;;;;5032515;28;20390;-65
2022/07/12 02:16:43;;;;;;;8.27;2.78;;;;;;;;;;5032424;28;20030;-65
2022/07/12 02:19:11;;;;;;;3.78;2.17;;;;;;;;;;5032420;28;20041;-65
2022/07/12 02:21:39;;;;;;;5.68;2.63;;;;;;;;;;5031236;28;20424;-65
2022/07/12 02:24:08;;;;;;;4.22;2.30;;;;;;;;;;5032470;28;20046;-65
2022/07/12 02:26:36;;;;;;;4.80;2.40;;;;;;;;;;5032714;28;20046;-65
2022/07/12 02:29:04;;;;;;;4.78;2.47;;;;;;;;;;5032224;28;20377;-65
2022/07/12 02:31:32;;;;;;;4.55;2.47;;;;;;;;;;5032312;28;20505;-65
2022/07/12 02:34:00;;;;;;;3.72;2.42;;;;;;;;;;5032352;28;20049;-67
2022/07/12 02:36:27;;;;;;;3.90;2.25;;;;;;;;;;5032178;28;20503;-64
2022/07/12 02:38:55;;;;;;;3.67;2.53;;;;;;;;;;5032337;28;20045;-64
2022/07/12 02:41:22;;;;;;;8.00;2.70;;;;;;;;;;5033331;28;20048;-64
2022/07/12 02:43:50;;;;;;;6.05;2.80;;;;;;;;;;5036254;28;20085;-64
2022/07/12 02:46:17;;;;;;;5.60;2.40;;;;;;;;;;5036180;28;20040;-65
2022/07/12 02:48:45;;;;;;;4.45;2.50;;;;;;;;;;5036246;28;20045;-64
2022/07/12 02:55:14;;;;;;;5.57;2.45;;;;;;;;;;5036386;28;20040;-64
2022/07/12 02:57:41;;;;;;;5.93;2.42;;;;;;;;;;5035982;28;20041;-64
2022/07/12 03:00:09;;;;;;;5.28;2.40;;;;;;;;;;5035979;28;20070;-65
2022/07/12 03:02:36;;;;;;;6.68;3.15;;;;;;;;;;5034618;28;20045;-64
2022/07/12 03:05:05;;;;;;;6.50;2.58;;;;;;;;;;5035714;28;20056;-64
2022/07/12 03:07:32;;;;;;;6.47;3.58;;;;;;;;;;5035782;28;20092;-65
2022/07/12 03:10:00;;;;;;;5.82;3.05;;;;;;;;;;5035473;28;20457;-65
2022/07/12 03:12:27;;;;;;;5.25;2.60;;;;;;;;;;5035578;28;20487;-65
2022/07/12 03:14:55;;;;;;;8.52;3.25;;;;;;;;;;5035868;28;20053;-65
2022/07/12 03:17:23;;;;;;;8.82;5.15;;;;;;;;;;5035586;28;20132;-65
2022/07/12 03:19:50;;;;;;;8.95;4.43;;;;;;;;;;5035551;28;20057;-65
2022/07/12 03:22:18;;;;;;;10.40;4.25;;;;;;;;;;5035408;28;20372;-65
2022/07/12 03:24:46;;;;;;;9.38;5.03;;;;;;;;;;5035588;28;20045;-65
2022/07/12 03:27:13;;;;;;;7.65;5.03;;;;;;;;;;5035268;28;20060;-65
2022/07/12 03:29:41;;;;;;;7.07;3.92;;;;;;;;;;5035219;28;20049;-65
2022/07/12 03:32:08;;;;;;;9.57;4.47;;;;;;;;;;5034975;28;20120;-65
2022/07/12 03:34:36;;;;;;;9.32;4.75;;;;;;;;;;5035178;28;20048;-65
2022/07/12 03:37:04;;;;;;;8.65;4.20;;;;;;;;;;5035150;28;20041;-65
2022/07/12 03:39:31;;;;;;;4.07;2.63;;;;;;;;;;5035195;28;20407;-65
2022/07/12 03:42:01;;;;;;;8.20;5.10;;;;;;;;;;5035003;28;20081;-65
2022/07/12 03:44:30;;;;;;;6.75;4.03;;;;;;;;;;5035017;28;20048;-65
2022/07/12 03:46:58;;;;;;;6.45;3.13;;;;;;;;;;5035064;28;20435;-65
2022/07/12 03:49:26;;;;;;;9.38;3.55;;;;;;;;;;5035118;28;20047;-66
2022/07/12 03:51:53;;;;;;;6.68;3.15;;;;;;;;;;5034562;28;20079;-65
2022/07/12 03:54:21;;;;;;;8.48;4.72;;;;;;;;;;5033892;28;20044;-65
2022/07/12 03:59:35;;;;;;;9.60;4.10;;;;;;;;;;5034273;28;20129;-65
2022/07/12 04:02:08;;;;;;;5.60;2.85;;;;;;;;;;5040190;28;20521;-65
2022/07/12 04:04:35;;;;;;;8.48;4.35;;;;;;;;;;5042176;28;20068;-65
2022/07/12 04:07:04;;;;;;;5.90;2.67;;;;;;;;;;5043772;28;20412;-65
2022/07/12 04:09:32;;;;;;;6.75;3.88;;;;;;;;;;5043010;28;20612;-65
2022/07/12 04:12:00;;;;;;;5.88;2.60;;;;;;;;;;5033890;28;20052;-66
2022/07/12 04:14:28;;;;;;;6.78;3.83;;;;;;;;;;5034478;28;20045;-69
2022/07/12 04:16:55;;;;;;;7.40;3.10;;;;;;;;;;5034319;28;20072;-65
2022/07/12 04:19:27;;;;;;;4.53;2.97;;;;;;;;;;5034387;28;20049;-65
2022/07/12 04:21:55;;;;;;;7.22;3.63;;;;;;;;;;5034318;28;20108;-65
2022/07/12 04:24:23;;;;;;;5.70;3.03;;;;;;;;;;5034207;28;20037;-65
2022/07/12 04:26:50;;;;;;;6.28;3.20;;;;;;;;;;5034433;28;20522;-65
2022/07/12 04:29:21;;;;;;;8.05;3.33;;;;;;;;;;5034019;28;20041;-66
2022/07/12 04:31:48;;;;;;;5.95;3.97;;;;;;;;;;5034064;28;20049;-65
2022/07/12 04:34:17;;;;;;;6.82;3.58;;;;;;;;;;5034049;28;20395;-65
2022/07/12 04:36:45;;;;;;;7.90;4.07;;;;;;;;;;5033931;28;20470;-66
2022/07/12 04:39:13;;;;;;;6.18;3.50;;;;;;;;;;5033372;28;20037;-65
2022/07/12 04:41:40;;;;;;;5.38;3.35;;;;;;;;;;5063972;28;20095;-65
2022/07/12 04:44:08;;;;;;;8.55;3.60;;;;;;;;;;5032154;28;20415;-66
2022/07/12 04:46:36;;;;;;;9.10;3.47;;;;;;;;;;5064346;28;20156;-66
2022/07/12 04:49:06;;;;;;;8.57;3.83;;;;;;;;;;5031012;28;20067;-66
2022/07/12 04:51:33;;;;;;;6.35;3.92;;;;;;;;;;5033262;28;20051;-66
2022/07/12 04:54:01;;;;;;;7.13;3.70;;;;;;;;;;5032801;28;20033;-66
2022/07/12 04:56:28;;;;;;;6.05;2.85;;;;;;;;;;5033754;28;20076;-65
2022/07/12 04:58:56;;;;;;;7.18;3.38;;;;;;;;;;5034185;28;20045;-66
2022/07/12 05:01:28;;;;;;;7.78;3.72;;;;;;;;;;5033691;28;20045;-66
2022/07/12 05:03:56;;;;;;;8.23;3.60;;;;;;;;;;5033380;28;20136;-66
2022/07/12 05:06:24;;;;;;;5.00;2.95;;;;;;;;;;5033529;28;20046;-66
2022/07/12 05:08:51;;;;;;;7.18;3.10;;;;;;;;;;5033631;28;20069;-66
2022/07/12 05:11:19;;;;;;;5.57;3.33;;;;;;;;;;5033265;28;20045;-66
2022/07/12 05:13:47;;;;;;;6.25;3.50;;;;;;;;;;5033015;28;20124;-66
2022/07/12 05:16:14;;;;;;;5.80;2.80;;;;;;;;;;5036143;28;20505;-66
2022/07/12 05:18:42;;;;;;;6.70;2.72;;;;;;;;;;5042439;28;20407;-66
2022/07/12 05:21:10;;;;;;;7.78;3.55;;;;;;;;;;5021180;28;20045;-66
2022/07/12 05:23:38;;;;;;;6.57;2.83;;;;;;;;;;5030921;28;20398;-66
2022/07/12 05:26:06;;;;;;;5.95;3.55;;;;;;;;;;5033277;28;20044;-65
2022/07/12 05:28:39;;;;;;;5.13;3.40;;;;;;;;;;5031944;28;20053;-66
2022/07/12 05:31:09;;;;;;;5.10;3.63;;;;;;;;;;5032993;28;20064;-66
2022/07/12 05:33:37;;;;;;;6.30;3.20;;;;;;;;;;5032918;28;20037;-66
2022/07/12 05:36:05;;;;;;;6.53;3.42;;;;;;;;;;5031842;28;20104;-66
2022/07/12 05:38:32;;;;;;;26.65;20.95;;;;;;;;;;5032850;28;20116;-66
2022/07/12 05:41:00;;;;;;;8.85;3.58;;;;;;;;;;5032903;28;20033;-66
2022/07/12 05:43:28;;;;;;;9.20;4.03;;;;;;;;;;5031597;28;20030;-67
2022/07/12 05:45:56;;;;;;;7.65;3.17;;;;;;;;;;5032744;28;20510;-67
2022/07/12 05:48:23;;;;;;;9.85;4.10;;;;;;;;;;5032163;28;20040;-67
2022/07/12 05:50:51;;;;;;;11.23;4.35;;;;;;;;;;5032794;28;20056;-67
2022/07/12 05:53:22;;;;;;;8.20;3.55;;;;;;;;;;5032825;28;20041;-67
2022/07/12 05:55:50;;;;;;;7.97;4.43;;;;;;;;;;5032768;28;20519;-67
2022/07/12 05:58:18;;;;;;;10.50;5.65;;;;;;;;;;5032796;28;20044;-67
2022/07/12 06:00:46;;;;;;;19.45;8.32;;;;;;;;;;5033272;28;20045;-67
2022/07/12 06:03:14;;;;;;;18.45;8.18;;;;;;;;;;5032493;28;20091;-67
2022/07/12 06:05:42;;;;;;;16.35;5.00;;;;;;;;;;5047972;28;20136;-67
2022/07/12 06:08:09;;;;;;;33.65;4.97;;;;;;;;;;5032560;28;20045;-67
2022/07/12 06:10:37;;;;;;;10.93;5.50;;;;;;;;;;5032456;28;20128;-67
2022/07/12 06:13:04;;;;;;;8.27;4.38;;;;;;;;;;5032563;28;20041;-67
2022/07/12 06:15:32;;;;;;;6.38;2.45;;;;;;;;;;5032044;28;20059;-67
2022/07/12 06:18:01;;;;;;;25.00;4.75;;;;;;;;;;5032723;28;20053;-67
2022/07/12 06:20:29;;;;;;;8.30;3.10;;;;;;;;;;5032487;28;20033;-67
2022/07/12 06:22:56;;;;;;;6.65;4.07;;;;;;;;;;5032442;28;20048;-67
2022/07/12 06:25:24;;;;;;;5.03;3.65;;;;;;;;;;5032381;28;20099;-67
2022/07/12 06:28:09;;;;;;;4.78;3.13;;;;;;;;;;5032334;28;20487;-66
2022/07/12 06:30:37;;;;;;;6.43;3.40;;;;;;;;;;5032258;28;20041;-67
2022/07/12 06:33:05;;;;;;;8.43;4.05;;;;;;;;;;5032292;28;20567;-67
2022/07/12 06:35:34;;;;;;;4.18;3.00;;;;;;;;;;5032363;28;20092;-67
2022/07/12 06:38:02;;;;;;;10.43;3.60;;;;;;;;;;5032231;28;20042;-67
2022/07/12 06:40:29;;;;;;;5.22;3.33;;;;;;;;;;5030931;28;20045;-67
2022/07/12 06:42:57;;;;;;;6.15;3.22;;;;;;;;;;5032188;28;20052;-67
2022/07/12 06:45:25;;;;;;;7.40;2.75;;;;;;;;;;5031935;28;20100;-67
2022/07/12 06:47:53;;;;;;;5.93;3.30;;;;;;;;;;5032263;28;20095;-67
2022/07/12 06:50:20;;;;;;;5.88;2.92;;;;;;;;;;5031925;28;20037;-67
2022/07/12 06:52:48;;;;;;;3.35;2.50;;;;;;;;;;5032101;28;20124;-67
2022/07/12 06:55:16;;;;;;;17.13;12.05;;;;;;;;;;5031929;28;20446;-67
2022/07/12 06:57:43;;;;;;;11.35;7.55;;;;;;;;;;5031998;28;20046;-67
2022/07/12 07:00:13;;;;;;;14.93;9.82;;;;;;;;;;5032077;28;20052;-67
2022/07/12 07:02:41;;;;;;;15.68;11.15;;;;;;;;;;5031863;28;20052;-67
2022/07/12 07:05:10;;;;;;;10.38;6.05;;;;;;;;;;5032022;28;20037;-67
2022/07/12 07:07:38;;;;;;;5.47;3.08;;;;;;;;;;5031905;28;20068;-67
2022/07/12 07:10:06;;;;;;;11.45;8.52;;;;;;;;;;5032125;28;20401;-67
2022/07/12 07:12:33;;;;;;;6.15;3.75;;;;;;;;;;5031775;28;20046;-67
2022/07/12 07:15:01;;;;;;;6.55;4.22;;;;;;;;;;5031685;28;20045;-67
2022/07/12 07:17:28;;;;;;;5.30;3.60;;;;;;;;;;5031695;28;20038;-67
2022/07/12 07:19:56;;;;;;;4.60;3.58;;;;;;;;;;5031599;28;20045;-67
2022/07/12 07:22:23;;;;;;;6.90;4.00;;;;;;;;;;5031881;28;20065;-67
2022/07/12 07:24:51;;;;;;;5.70;2.35;;;;;;;;;;5031717;28;20033;-67
2022/07/12 07:27:18;;;;;;;2.80;1.73;;;;;;;;;;5032562;28;20395;-67
2022/07/12 07:32:32;;;;;;;6.43;4.30;;;;;;;;;;5035216;28;20049;-67
2022/07/12 07:34:59;;;;;;;4.70;2.45;;;;;;;;;;5035129;28;20061;-67
2022/07/12 07:37:27;;;;;;;3.83;2.05;;;;;;;;;;5035055;28;20042;-67
2022/07/12 07:39:54;;;;;;;2.67;2.13;;;;;;;;;;5035105;28;20049;-67
2022/07/12 07:42:22;;;;;;;4.53;2.88;;;;;;;;;;5035142;28;20045;-67
2022/07/12 07:44:49;;;;;;;3.15;2.25;;;;;;;;;;5035329;28;20053;-67
2022/07/12 07:47:48;;;;;;;1.83;1.60;;;;;;;;;;5035088;28;20041;-67
2022/07/12 07:50:35;;;;;;;3.38;1.85;;;;;;;;;;5035088;28;20103;-67
2022/07/12 07:53:04;;;;;;;2.92;1.60;;;;;;;;;;5035005;28;20041;-67
2022/07/12 07:55:31;;;;;;;3.95;1.92;;;;;;;;;;5034843;28;20038;-67
2022/07/12 07:58:00;;;;;;;4.75;2.47;;;;;;;;;;5034836;28;20120;-67
2022/07/12 08:00:28;;;;;;;6.40;4.05;;;;;;;;;;5034648;28;20087;-67
2022/07/12 08:02:56;;;;;;;3.45;2.53;;;;;;;;;;5035239;28;20040;-67
2022/07/12 08:05:24;;;;;;;21.17;18.77;;;;;;;;;;5034635;28;20041;-67
2022/07/12 08:07:55;;;;;;;3.72;2.40;;;;;;;;;;5034611;28;20057;-67
2022/07/12 08:10:23;;;;;;;3.08;2.00;;;;;;;;;;5034217;28;20129;-68
2022/07/12 08:12:51;;;;;;;15.20;2.15;;;;;;;;;;5034252;28;20047;-67
2022/07/12 08:15:18;;;;;;;3.78;2.35;;;;;;;;;;5034495;28;20069;-68
2022/07/12 08:17:46;;;;;;;5.25;2.75;;;;;;;;;;5034677;28;20046;-67
2022/07/12 08:20:21;;;;;;;3.03;2.72;;;;;;;;;;5033119;28;20054;-67
2022/07/12 08:23:09;;;;;;;8.70;2.83;;;;;;;;;;5033478;28;20051;-68
2022/07/12 08:25:37;;;;;;;4.20;2.70;;;;;;;;;;5034462;28;20037;-66
2022/07/12 08:28:04;;;;;;;5.47;2.45;;;;;;;;;;5034496;28;20080;-66
2022/07/12 08:30:32;;;;;;;3.50;1.90;;;;;;;;;;5032946;28;20076;-66
2022/07/12 08:33:00;;;;;;;2.75;1.48;;;;;;;;;;5034452;28;20049;-66
2022/07/12 08:35:28;;;;;;;3.42;1.85;;;;;;;;;;5034107;28;20510;-67
2022/07/12 08:37:55;;;;;;;2.78;2.38;;;;;;;;;;5034291;28;20041;-67
2022/07/12 08:40:23;;;;;;;7.43;1.40;;;;;;;;;;5033464;28;20113;-69
2022/07/12 08:42:51;;;;;;;3.08;1.50;;;;;;;;;;5033957;28;20140;-67
2022/07/12 08:45:18;;;;;;;3.17;1.90;;;;;;;;;;5033893;28;20050;-67
2022/07/12 08:47:45;;;;;;;4.35;2.50;;;;;;;;;;5033861;28;20045;-67
2022/07/12 08:50:17;;;;;;;3.65;2.70;;;;;;;;;;5033815;28;20061;-67
2022/07/12 08:52:51;;;;;;;3.05;1.63;;;;;;;;;;5033977;28;20052;-67
2022/07/12 08:55:20;;;;;;;3.70;2.22;;;;;;;;;;5033850;28;20053;-67
2022/07/12 08:57:49;;;;;;;3.03;1.73;;;;;;;;;;5033730;28;20041;-68
2022/07/12 09:00:17;;;;;;;5.45;2.00;;;;;;;;;;5033698;28;20048;-67
2022/07/12 09:02:45;;;;;;;1.55;1.40;;;;;;;;;;5033614;28;20388;-67
2022/07/12 09:05:13;;;;;;;4.20;1.67;;;;;;;;;;5033749;28;20036;-67
2022/07/12 09:07:41;;;;;;;6.88;3.03;;;;;;;;;;5033777;28;20049;-67
2022/07/12 09:10:09;;;;;;;3.28;2.53;;;;;;;;;;5033318;28;20051;-67
2022/07/12 09:12:37;;;;;;;3.85;2.30;;;;;;;;;;5033568;28;20335;-67
2022/07/12 09:15:17;;;;;;;4.80;2.25;;;;;;;;;;5033387;28;20041;-67
2022/07/12 09:17:54;;;;;;;12.00;2.13;;;;;;;;;;5033392;28;20108;-68
2022/07/12 09:20:24;;;;;;;2.47;1.70;;;;;;;;;;5033132;28;20049;-67
2022/07/12 09:22:53;;;;;;;4.65;1.90;;;;;;;;;;5033043;28;20045;-67
2022/07/12 09:25:20;;;;;;;5.45;1.90;;;;;;;;;;5033148;28;20399;-67
2022/07/12 09:27:49;;;;;;;3.15;2.05;;;;;;;;;;5033053;28;20091;-67
2022/07/12 09:30:18;;;;;;;3.55;2.00;;;;;;;;;;5033009;28;20037;-69
2022/07/12 09:38:48;;;;;;;3.25;2.70;;;;;;;;;;5033123;28;20434;-67
2022/07/12 09:41:19;;;;;;;10.07;5.50;;;;;;;;;;5032913;28;20091;-67
2022/07/12 09:43:47;;;;;;;3.05;2.10;;;;;;;;;;5031476;28;20136;-67
2022/07/12 09:46:16;;;;;;;3.85;2.53;;;;;;;;;;5032972;28;20511;-67
2022/07/12 09:48:44;;;;;;;4.55;2.65;;;;;;;;;;5032966;28;20061;-67
2022/07/12 09:51:16;;;;;;;3.35;2.40;;;;;;;;;;5031826;28;20045;-66
2022/07/12 09:53:45;;;;;;;3.95;2.13;;;;;;;;;;5033137;28;20046;-66
2022/07/12 09:56:14;;;;;;;5.00;2.53;;;;;;;;;;5032720;28;20053;-67
2022/07/12 09:58:45;;;;;;;3.70;2.30;;;;;;;;;;5032765;28;20045;-67
2022/07/12 10:01:13;;;;;;;5.22;2.50;;;;;;;;;;5032710;28;20051;-67
2022/07/12 10:03:44;;;;;;;6.18;2.03;;;;;;;;;;5032682;28;20124;-67
2022/07/12 10:06:25;;;;;;;5.65;1.75;;;;;;;;;;5032596;28;20042;-67
2022/07/12 10:09:01;;;;;;;16.70;13.32;;;;;;;;;;5032722;28;20399;-67
2022/07/12 10:11:29;;;;;;;2.88;1.73;;;;;;;;;;5032383;28;20045;-67
2022/07/12 10:14:17;;;;;;;4.72;2.90;;;;;;;;;;5031462;28;20069;-67
2022/07/12 10:16:45;;;;;;;3.08;1.40;;;;;;;;;;5032489;28;20045;-68
2022/07/12 10:19:42;;;;;;;3.25;1.60;;;;;;;;;;5032486;28;20542;-68
2022/07/12 10:22:22;;;;;;;3.38;2.55;;;;;;;;;;5027381;28;20050;-68
2022/07/12 10:24:54;;;;;;;3.38;2.20;;;;;;;;;;5032483;28;20112;-68
2022/07/12 10:27:24;;;;;;;4.00;2.47;;;;;;;;;;5031265;28;20049;-68
2022/07/12 10:29:52;;;;;;;3.78;2.70;;;;;;;;;;5031391;28;20041;-68
2022/07/12 10:32:24;;;;;;;3.85;2.40;;;;;;;;;;5032254;28;20077;-67
2022/07/12 10:35:01;;;;;;;4.95;2.60;;;;;;;;;;5032312;28;20467;-67
2022/07/12 10:37:29;;;;;;;7.32;3.20;;;;;;;;;;5032350;28;20041;-67
2022/07/12 10:40:13;;;;;;;6.05;2.70;;;;;;;;;;5032255;28;20034;-68
2022/07/12 10:42:48;;;;;;;29.50;20.48;;;;;;;;;;5032313;28;20072;-68
2022/07/12 10:45:16;;;;;;;5.50;1.85;;;;;;;;;;5032217;28;20049;-68
2022/07/12 10:47:54;;;;;;;5.50;2.63;;;;;;;;;;5032135;28;20053;-68
2022/07/12 10:50:55;;;;;;;3.28;1.63;;;;;;;;;;5032133;28;20144;-68
2022/07/12 10:53:30;;;;;;;5.28;2.10;;;;;;;;;;5032070;28;20049;-68
2022/07/12 10:56:15;;;;;;;7.40;2.40;;;;;;;;;;5032107;28;20053;-68
2022/07/12 10:58:44;;;;;;;4.28;2.13;;;;;;;;;;5030909;28;20107;-68
2022/07/12 11:01:17;;;;;;;5.82;2.78;;;;;;;;;;5031801;28;20052;-68
2022/07/12 11:03:49;;;;;;;5.60;2.80;;;;;;;;;;5035055;28;20076;-68
2022/07/12 11:06:18;;;;;;;5.78;3.90;;;;;;;;;;5035634;28;20087;-68
2022/07/12 11:08:49;;;;;;;5.63;2.88;;;;;;;;;;5034278;28;20045;-68
2022/07/12 11:11:17;;;;;;;5.00;2.58;;;;;;;;;;5035644;28;20053;-68
2022/07/12 11:13:45;;;;;;;3.85;1.80;;;;;;;;;;5035652;28;20051;-68
2022/07/12 11:16:13;;;;;;;4.38;1.60;;;;;;;;;;5035705;28;20045;-68
2022/07/12 11:18:40;;;;;;;3.88;2.45;;;;;;;;;;5035563;28;20038;-68
2022/07/12 11:21:08;;;;;;;4.07;1.38;;;;;;;;;;5035664;28;20052;-68
2022/07/12 11:23:36;;;;;;;2.70;1.80;;;;;;;;;;5035363;28;20050;-68
2022/07/12 11:26:05;;;;;;;4.75;2.47;;;;;;;;;;5035298;28;20076;-68
2022/07/12 11:28:32;;;;;;;4.45;2.13;;;;;;;;;;5035491;28;20653;-68
2022/07/12 11:31:04;;;;;;;5.00;1.80;;;;;;;;;;5035161;28;20033;-68
2022/07/12 11:33:33;;;;;;;8.27;1.83;;;;;;;;;;5035346;28;20057;-68
2022/07/12 11:36:06;;;;;;;5.30;2.95;;;;;;;;;;5035217;28;20049;-68
2022/07/12 11:38:34;;;;;;;4.75;1.70;;;;;;;;;;5035468;28;20463;-68
2022/07/12 11:41:10;;;;;;;6.05;1.60;;;;;;;;;;5035112;28;20120;-68
2022/07/12 11:43:38;;;;;;;8.10;2.00;;;;;;;;;;5034847;28;20050;-68
2022/07/12 11:46:06;;;;;;;6.35;2.85;;;;;;;;;;5034889;28;20033;-68
2022/07/12 11:48:33;;;;;;;3.72;1.85;;;;;;;;;;5034766;28;20076;-68
2022/07/12 11:51:06;;;;;;;6.10;2.70;;;;;;;;;;5034826;28;20045;-68
2022/07/12 11:53:34;;;;;;;8.57;6.18;;;;;;;;;;5034777;28;20401;-68
2022/07/12 11:56:02;;;;;;;9.50;5.25;;;;;;;;;;5034830;28;20456;-68
2022/07/12 11:58:32;;;;;;;6.63;2.40;;;;;;;;;;5034827;28;20116;-68
2022/07/12 12:01:00;;;;;;;9.27;2.80;;;;;;;;;;5034789;28;20076;-68
2022/07/12 12:03:27;;;;;;;5.63;3.50;;;;;;;;;;5034888;28;20506;-68
2022/07/12 12:05:58;;;;;;;8.77;2.60;;;;;;;;;;5034848;28;20543;-68
2022/07/12 12:08:26;;;;;;;7.05;3.08;;;;;;;;;;5034745;28;20051;-68
2022/07/12 12:10:58;;;;;;;5.43;3.20;;;;;;;;;;5034551;28;20034;-68
2022/07/12 12:13:29;;;;;;;4.22;2.35;;;;;;;;;;5032911;28;20107;-68
2022/07/12 12:15:58;;;;;;;4.07;1.50;;;;;;;;;;5034201;28;20037;-68
2022/07/12 12:18:29;;;;;;;6.10;2.20;;;;;;;;;;5034503;28;20045;-68
2022/07/12 12:21:00;;;;;;;3.65;1.83;;;;;;;;;;5034403;28;20068;-68
2022/07/12 12:23:28;;;;;;;6.13;1.60;;;;;;;;;;5034474;28;20047;-68
2022/07/12 12:26:15;;;;;;;5.18;2.30;;;;;;;;;;5034264;28;20042;-68
2022/07/12 12:28:45;;;;;;;3.50;2.30;;;;;;;;;;5034127;28;20517;-68
2022/07/12 12:31:14;;;;;;;5.70;2.70;;;;;;;;;;5034108;28;20091;-68
2022/07/12 12:33:42;;;;;;;10.57;3.60;;;;;;;;;;5034067;28;20041;-68
2022/07/12 12:36:13;;;;;;;4.43;3.28;;;;;;;;;;5034000;28;20072;-68
2022/07/12 12:38:42;;;;;;;7.25;2.97;;;;;;;;;;5034124;28;20045;-68
2022/07/12 12:41:10;;;;;;;5.57;2.28;;;;;;;;;;5032825;28;20048;-68
2022/07/12 12:43:38;;;;;;;6.30;2.85;;;;;;;;;;5033862;28;20454;-68
2022/07/12 12:46:05;;;;;;;6.10;2.10;;;;;;;;;;5033942;28;20060;-68
2022/07/12 12:48:34;;;;;;;4.55;1.77;;;;;;;;;;5033754;28;20053;-68
2022/07/12 12:51:11;;;;;;;6.78;2.72;;;;;;;;;;5034264;28;20049;-68
2022/07/12 12:53:40;;;;;;;5.15;3.67;;;;;;;;;;5033777;28;20096;-68
2022/07/12 12:56:08;;;;;;;5.22;1.90;;;;;;;;;;5033693;28;20048;-68
2022/07/12 12:58:36;;;;;;;6.85;2.33;;;;;;;;;;5033871;28;20175;-68
2022/07/12 13:01:04;;;;;;;5.20;2.65;;;;;;;;;;5033725;28;20053;-68
2022/07/12 13:03:33;;;;;;;6.53;3.20;;;;;;;;;;5033769;28;20116;-68
2022/07/12 13:06:01;;;;;;;4.18;2.10;;;;;;;;;;5033558;28;20099;-68
2022/07/12 13:08:29;;;;;;;5.47;2.35;;;;;;;;;;5033495;28;20068;-68
2022/07/12 13:13:43;;;;;;;7.93;2.70;;;;;;;;;;5033541;28;20053;-68
2022/07/12 13:16:10;;;;;;;5.88;2.00;;;;;;;;;;5032728;28;20045;-68
2022/07/12 13:18:38;;;;;;;4.18;2.20;;;;;;;;;;5029725;28;20096;-68
2022/07/12 13:21:05;;;;;;;4.63;1.85;;;;;;;;;;5032789;28;20037;-68
2022/07/12 13:23:33;;;;;;;5.30;2.00;;;;;;;;;;5032868;28;20466;-68
2022/07/12 13:26:00;;;;;;;2.60;1.58;;;;;;;;;;5032314;28;20037;-68
2022/07/12 13:28:28;;;;;;;2.70;1.65;;;;;;;;;;5032303;28;20033;-68
2022/07/12 13:30:56;;;;;;;1.88;1.55;;;;;;;;;;5031956;28;20033;-67
2022/07/12 13:33:23;;;;;;;2.70;1.70;;;;;;;;;;5031026;28;20123;-67
2022/07/12 13:35:51;;;;;;;4.40;1.70;;;;;;;;;;5032446;28;20033;-67
2022/07/12 13:38:18;;;;;;;4.70;1.83;;;;;;;;;;5032329;28;20213;-67
2022/07/12 13:40:46;;;;;;;3.22;1.63;;;;;;;;;;5032196;28;20034;-68
2022/07/12 13:43:13;;;;;;;5.80;1.60;;;;;;;;;;5032692;28;20077;-67
2022/07/12 13:45:44;;;;;;;4.43;1.65;;;;;;;;;;5031958;28;20056;-67
2022/07/12 13:48:12;;;;;;;3.13;1.45;;;;;;;;;;5032503;28;20124;-68
2022/07/12 13:50:39;;;;;;;4.80;2.03;;;;;;;;;;5032348;28;20048;-67
2022/07/12 13:53:07;;;;;;;7.07;3.38;;;;;;;;;;5032295;28;20056;-67
2022/07/12 13:55:35;;;;;;;5.63;1.90;;;;;;;;;;5032551;28;20068;-68
2022/07/12 13:58:07;;;;;;;6.25;1.95;;;;;;;;;;5031815;28;20107;-68
2022/07/12 14:00:35;;;;;;;3.58;1.60;;;;;;;;;;5026160;28;20072;-68
2022/07/12 14:03:03;;;;;;;5.15;2.38;;;;;;;;;;5032221;28;20052;-68
2022/07/12 14:05:31;;;;;;;5.93;2.72;;;;;;;;;;5031933;28;20042;-69
2022/07/12 14:07:58;;;;;;;7.53;1.98;;;;;;;;;;5032159;28;20037;-68
2022/07/12 14:10:26;;;;;;;5.38;1.52;;;;;;;;;;5031838;28;20113;-68
2022/07/12 14:12:54;;;;;;;4.80;2.05;;;;;;;;;;5030736;28;20119;-68
2022/07/12 14:15:37;;;;;;;6.40;2.30;;;;;;;;;;5031886;28;20034;-67
2022/07/12 14:18:05;;;;;;;4.80;2.35;;;;;;;;;;5031926;28;20120;-68
2022/07/12 14:20:34;;;;;;;5.82;2.67;;;;;;;;;;5031855;28;20132;-68
2022/07/12 14:23:02;;;;;;;5.03;2.20;;;;;;;;;;5031642;28;20041;-68
2022/07/12 14:25:29;;;;;;;6.95;2.92;;;;;;;;;;5031732;28;20491;-68
2022/07/12 14:27:57;;;;;;;11.40;4.22;;;;;;;;;;5031572;28;20076;-68
2022/07/12 14:30:25;;;;;;;5.35;2.00;;;;;;;;;;5031837;28;20039;-68
2022/07/12 14:32:52;;;;;;;6.13;2.80;;;;;;;;;;5031988;28;20493;-68
2022/07/12 14:35:20;;;;;;;4.07;1.40;;;;;;;;;;5031836;28;20541;-68
2022/07/12 14:37:47;;;;;;;8.77;2.30;;;;;;;;;;5032402;28;20071;-68
2022/07/12 14:40:15;;;;;;;4.75;1.92;;;;;;;;;;5035902;28;20034;-68
2022/07/12 14:42:44;;;;;;;2.58;1.48;;;;;;;;;;5035880;28;20048;-67
2022/07/12 14:45:12;;;;;;;4.95;2.45;;;;;;;;;;5034566;28;20181;-68
2022/07/12 14:47:39;;;;;;;6.47;2.22;;;;;;;;;;5035738;28;20483;-67
2022/07/12 14:50:07;;;;;;;4.88;2.10;;;;;;;;;;5035621;28;20046;-68
2022/07/12 14:52:34;;;;;;;5.38;2.35;;;;;;;;;;5035646;28;20042;-68
2022/07/12 14:55:03;;;;;;;6.97;2.90;;;;;;;;;;5035950;28;20052;-67
2022/07/12 14:57:30;;;;;;;2.45;1.42;;;;;;;;;;5035460;28;20041;-68
2022/07/12 14:59:58;;;;;;;8.07;3.75;;;;;;;;;;5035607;28;20045;-72
2022/07/12 15:02:28;;;;;;;6.78;3.00;;;;;;;;;;5035312;28;20065;-68
2022/07/12 15:04:56;;;;;;;7.50;2.40;;;;;;;;;;5035293;28;20495;-67
2022/07/12 15:07:23;;;;;;;6.35;2.53;;;;;;;;;;5035254;28;20068;-68
2022/07/12 15:09:51;;;;;;;6.97;1.92;;;;;;;;;;5034104;28;20450;-67
2022/07/12 15:12:18;;;;;;;2.85;1.30;;;;;;;;;;5035189;28;20037;-66